Time;durP1;ratioP1;P1;durP2;ratioP2;P2;SDS_P1;SDS_P2;PMS_P1;PMS_P2;Temp;Humidity;BMP_temperature;BMP_pressure;BME280_temperature;BME280_humidity;BME280_pressure;Samples;Min_cycle;Max_cycle;Signal;HPM_P1;HPM_P2
2022/01/13 00:02:23;;;;;;;39.80;22.70;;;;;;;4.02;75.52;104107.19;5093150;28;20097;-70
2022/01/13 00:04:48;;;;;;;46.35;24.15;;;;;;;3.99;75.61;104109.31;5097513;28;20454;-70
2022/01/13 00:07:13;;;;;;;45.97;24.73;;;;;;;4.00;75.88;104109.16;5096505;28;20078;-70
2022/01/13 00:09:39;;;;;;;46.03;24.50;;;;;;;3.99;75.97;104112.06;5107158;28;20036;-70
2022/01/13 00:12:07;;;;;;;44.88;24.38;;;;;;;4.00;75.42;104119.28;5095996;28;20050;-70
2022/01/13 00:17:11;;;;;;;43.75;22.58;;;;;;;3.98;75.12;104127.69;5102891;28;20275;-70
2022/01/13 00:24:42;;;;;;;40.90;22.42;;;;;;;3.98;75.22;104124.94;5099496;28;20040;-70
2022/01/13 00:27:11;;;;;;;45.47;22.90;;;;;;;3.98;75.11;104122.19;5105050;28;20424;-70
2022/01/13 00:29:40;;;;;;;40.65;23.48;;;;;;;3.97;75.07;104131.44;5109141;28;20020;-70
2022/01/13 00:32:07;;;;;;;40.50;23.10;;;;;;;3.96;75.43;104128.78;5096175;28;20047;-70
2022/01/13 00:34:32;;;;;;;42.55;23.67;;;;;;;3.94;75.22;104127.06;5099122;28;20107;-70
2022/01/13 00:36:58;;;;;;;41.25;22.92;;;;;;;3.92;75.52;104129.03;5098260;28;20106;-70
2022/01/13 00:39:24;;;;;;;41.15;23.67;;;;;;;3.90;75.49;104125.56;5108777;28;20455;-70
2022/01/13 00:41:49;;;;;;;42.90;23.50;;;;;;;3.94;75.72;104123.44;5112094;28;20038;-70
2022/01/13 00:44:19;;;;;;;39.28;22.00;;;;;;;3.99;75.07;104126.66;5107016;28;20035;-70
2022/01/13 00:46:47;;;;;;;38.92;22.63;;;;;;;4.00;75.24;104119.28;5112162;28;20032;-70
2022/01/13 00:49:14;;;;;;;38.22;22.27;;;;;;;4.02;74.89;104112.66;5106203;28;20055;-70
2022/01/13 00:51:40;;;;;;;39.35;21.33;;;;;;;4.02;75.09;104109.06;5100060;28;20028;-70
2022/01/13 00:54:07;;;;;;;37.15;20.90;;;;;;;4.02;75.04;104111.81;5100973;28;20479;-69
2022/01/13 00:56:33;;;;;;;36.58;21.08;;;;;;;4.01;75.06;104121.03;5094082;28;20161;-70
2022/01/13 00:59:07;;;;;;;41.65;22.63;;;;;;;3.98;75.78;104108.44;5096528;28;20047;-70
2022/01/13 01:01:32;;;;;;;39.08;22.65;;;;;;;3.97;75.72;104109.44;5099615;28;20036;-70
2022/01/13 01:03:58;;;;;;;36.53;21.35;;;;;;;3.96;75.60;104104.94;5094089;28;20114;-70
2022/01/13 01:06:23;;;;;;;36.47;20.52;;;;;;;3.97;74.79;104097.56;5106819;28;20027;-70
2022/01/13 01:08:48;;;;;;;36.75;21.05;;;;;;;3.97;75.32;104101.19;5097424;28;20111;-70
2022/01/13 01:11:14;;;;;;;35.72;19.88;;;;;;;3.93;74.76;104116.22;5112055;28;20032;-69
2022/01/13 01:13:39;;;;;;;36.55;20.90;;;;;;;3.89;75.32;104111.94;5096925;28;20419;-70
2022/01/13 01:16:09;;;;;;;34.65;20.92;;;;;;;3.93;74.71;104108.84;5111690;28;20034;-70
2022/01/13 01:19:03;;;;;;;36.60;20.05;;;;;;;3.95;75.35;104108.69;5103135;28;20046;-70
2022/01/13 01:29:07;;;;;;;34.40;19.83;;;;;;;3.92;74.83;104106.19;5113120;28;20039;-70
2022/01/13 01:31:35;;;;;;;31.60;18.73;;;;;;;3.90;74.68;104120.06;5104965;28;20035;-70
2022/01/13 01:36:51;;;;;;;34.85;19.05;;;;;;;3.90;74.35;104116.47;5095325;28;20494;-70
2022/01/13 01:39:17;;;;;;;35.38;20.58;;;;;;;3.90;74.44;104109.09;5100471;28;20039;-70
2022/01/13 01:41:48;;;;;;;33.58;19.90;;;;;;;3.95;74.41;104108.69;5105339;28;20023;-70
2022/01/13 01:44:16;;;;;;;31.48;18.27;;;;;;;3.89;74.15;104111.94;5110084;28;20023;-70
2022/01/13 01:46:45;;;;;;;27.38;16.95;;;;;;;3.92;73.99;104112.56;5114232;28;20042;-70
2022/01/13 01:49:16;;;;;;;27.27;17.25;;;;;;;3.90;74.44;104105.47;5106625;28;20107;-70
2022/01/13 01:51:47;;;;;;;25.77;16.67;;;;;;;3.88;74.19;104099.22;5104176;28;20020;-70
2022/01/13 01:54:13;;;;;;;26.15;16.80;;;;;;;3.83;74.33;104099.59;5111114;28;20118;-70
2022/01/13 01:56:39;;;;;;;29.85;17.10;;;;;;;3.82;74.09;104094.25;5103110;28;20115;-70
2022/01/13 01:59:06;;;;;;;30.63;17.98;;;;;;;3.82;73.99;104094.25;5105470;28;20024;-70
2022/01/13 02:01:31;;;;;;;28.40;17.60;;;;;;;3.84;74.77;104098.59;5096134;28;20032;-69
2022/01/13 02:03:56;;;;;;;29.30;17.45;;;;;;;3.86;74.33;104095.75;5100389;28;20031;-70
2022/01/13 02:06:22;;;;;;;26.45;16.38;;;;;;;3.80;74.24;104090.75;5101891;28;20034;-70
2022/01/13 02:08:47;;;;;;;27.95;15.95;;;;;;;3.79;74.30;104089.00;5110675;28;20046;-70
2022/01/13 02:11:14;;;;;;;28.15;16.15;;;;;;;3.76;74.54;104094.75;5095353;28;20038;-70
2022/01/13 02:13:47;;;;;;;24.92;15.93;;;;;;;3.78;74.50;104093.63;5100338;28;20391;-70
2022/01/13 02:16:36;;;;;;;24.60;15.43;;;;;;;3.84;74.34;104108.72;5096912;28;20024;-70
2022/01/13 02:18:58;;;;;;;23.27;14.88;;;;;;;3.81;74.29;104101.63;5101030;28;20102;-70
2022/01/13 02:21:27;;;;;;;23.30;15.05;;;;;;;3.84;74.06;104097.72;5094839;28;20119;-69
2022/01/13 02:23:55;;;;;;;24.40;15.52;;;;;;;3.77;74.63;104101.97;5104850;28;20106;-70
2022/01/13 02:26:21;;;;;;;23.42;14.65;;;;;;;3.80;74.56;104107.22;5107727;28;20468;-70
2022/01/13 02:28:47;;;;;;;25.35;14.82;;;;;;;3.77;74.75;104115.72;5109789;28;20047;-70
2022/01/13 02:31:13;;;;;;;26.30;16.17;;;;;;;3.76;74.86;104117.59;5105963;28;20069;-70
2022/01/13 02:33:39;;;;;;;26.83;15.77;;;;;;;3.76;74.75;104111.25;5096657;28;20040;-70
2022/01/13 02:36:05;;;;;;;25.85;16.13;;;;;;;3.75;74.48;104109.50;5095361;28;20391;-70
2022/01/13 02:38:30;;;;;;;24.15;14.77;;;;;;;3.75;74.55;104099.38;5101503;28;20024;-70
2022/01/13 02:40:57;;;;;;;24.80;14.93;;;;;;;3.72;75.09;104098.75;5110777;28;20043;-70
2022/01/13 02:43:24;;;;;;;26.48;15.10;;;;;;;3.73;74.62;104095.00;5101837;28;20024;-70
2022/01/13 02:46:06;;;;;;;26.98;15.35;;;;;;;3.74;74.55;104089.41;5105569;28;20023;-70
2022/01/13 02:48:33;;;;;;;26.00;15.48;;;;;;;3.75;75.16;104098.50;5100959;28;20031;-70
2022/01/13 02:50:59;;;;;;;26.58;15.88;;;;;;;3.72;75.12;104102.38;5103283;28;20409;-70
2022/01/13 02:53:25;;;;;;;30.73;16.02;;;;;;;3.74;75.03;104102.28;5112286;28;20031;-70
2022/01/13 02:55:51;;;;;;;27.63;15.82;;;;;;;3.66;74.94;104101.03;5100554;28;20028;-70
2022/01/13 02:58:17;;;;;;;28.60;16.13;;;;;;;3.64;75.15;104102.16;5112409;28;20102;-70
2022/01/13 03:00:43;;;;;;;27.67;16.48;;;;;;;3.68;75.08;104100.88;5095335;28;20016;-70
2022/01/13 03:03:08;;;;;;;28.45;16.98;;;;;;;3.68;74.79;104100.88;5096263;28;20032;-70
2022/01/13 03:05:37;;;;;;;29.00;16.58;;;;;;;3.70;75.03;104098.91;5106627;28;20065;-70
2022/01/13 03:08:04;;;;;;;29.25;17.48;;;;;;;3.72;74.85;104104.25;5111223;28;20024;-70
2022/01/13 03:10:29;;;;;;;31.23;17.55;;;;;;;3.69;75.37;104094.38;5099021;28;20058;-70
2022/01/13 03:12:56;;;;;;;29.08;17.25;;;;;;;3.72;74.88;104096.88;5097414;28;20055;-70
2022/01/13 03:15:21;;;;;;;32.05;17.38;;;;;;;3.71;75.05;104091.53;5105928;28;20081;-70
2022/01/13 03:17:46;;;;;;;27.70;16.70;;;;;;;3.74;74.78;104085.78;5093790;28;20016;-70
2022/01/13 03:20:12;;;;;;;27.60;16.13;;;;;;;3.70;74.95;104079.66;5108617;28;20103;-70
2022/01/13 03:22:37;;;;;;;29.38;16.52;;;;;;;3.68;75.16;104082.53;5096606;28;20144;-70
2022/01/13 03:25:03;;;;;;;27.98;16.15;;;;;;;3.71;75.25;104081.41;5094823;28;20042;-70
2022/01/13 03:27:34;;;;;;;29.55;17.02;;;;;;;3.69;74.96;104083.41;5097571;28;20085;-70
2022/01/13 03:30:02;;;;;;;31.77;17.45;;;;;;;3.67;75.62;104079.91;5103983;28;20027;-70
2022/01/13 03:32:27;;;;;;;30.80;17.33;;;;;;;3.68;75.71;104082.53;5097274;28;20030;-70
2022/01/13 03:34:53;;;;;;;31.83;17.73;;;;;;;3.72;75.73;104085.03;5094671;28;20433;-70
2022/01/13 03:37:18;;;;;;;31.88;19.63;;;;;;;3.70;75.49;104085.16;5102414;28;20405;-70
2022/01/13 03:39:43;;;;;;;32.85;19.45;;;;;;;3.78;75.31;104081.78;5109750;28;20036;-70
2022/01/13 03:42:09;;;;;;;34.28;19.55;;;;;;;3.73;75.13;104078.53;5094820;28;20528;-70
2022/01/13 03:44:34;;;;;;;33.50;20.15;;;;;;;3.77;75.26;104077.25;5104599;28;20115;-70
2022/01/13 03:47:02;;;;;;;34.80;19.38;;;;;;;3.76;74.80;104072.78;5098191;28;20024;-70
2022/01/13 03:49:28;;;;;;;38.67;20.52;;;;;;;3.78;74.98;104081.78;5092908;28;20024;-70
2022/01/13 03:51:58;;;;;;;39.97;21.58;;;;;;;3.76;75.35;104078.25;5097750;28;20035;-70
2022/01/13 03:54:33;;;;;;;40.10;21.60;;;;;;;3.68;75.19;104074.28;5106962;28;20071;-70
2022/01/13 03:57:33;;;;;;;38.63;21.55;;;;;;;3.73;74.88;104084.00;5095514;28;20047;-70
2022/01/13 04:00:39;;;;;;;39.70;21.52;;;;;;;3.73;75.34;104079.38;5099288;28;20023;-70
2022/01/13 04:03:04;;;;;;;35.60;21.23;;;;;;;3.69;74.75;104077.91;5097463;28;20401;-70
2022/01/13 04:05:29;;;;;;;39.30;21.15;;;;;;;3.67;75.13;104068.94;5095550;28;20115;-70
2022/01/13 04:07:56;;;;;;;39.45;21.30;;;;;;;3.67;74.71;104068.94;5098368;28;20077;-70
2022/01/13 04:10:46;;;;;;;40.92;22.15;;;;;;;3.72;75.02;104079.53;5097321;28;20032;-70
2022/01/13 04:13:22;;;;;;;40.72;22.38;;;;;;;3.67;75.00;104069.81;5092991;28;20508;-70
2022/01/13 04:15:49;;;;;;;42.25;23.13;;;;;;;3.76;74.79;104067.28;5094319;28;20156;-70
2022/01/13 04:18:14;;;;;;;42.38;22.75;;;;;;;3.70;75.32;104063.19;5103426;28;20565;-70
2022/01/13 04:20:39;;;;;;;43.55;22.45;;;;;;;3.65;75.37;104065.44;5096862;28;20065;-70
2022/01/13 04:23:05;;;;;;;42.88;24.27;;;;;;;3.68;75.12;104066.03;5097099;28;20019;-70
2022/01/13 04:25:32;;;;;;;46.97;24.90;;;;;;;3.68;74.83;104067.91;5102065;28;20024;-70
2022/01/13 04:28:02;;;;;;;41.50;22.95;;;;;;;3.69;75.31;104076.06;5092928;28;20028;-70
2022/01/13 04:30:45;;;;;;;44.10;22.92;;;;;;;3.66;75.05;104073.56;5095054;28;20024;-70
2022/01/13 04:33:12;;;;;;;43.25;22.08;;;;;;;3.67;75.08;104071.69;5100912;28;20023;-70
2022/01/13 04:35:37;;;;;;;41.60;22.20;;;;;;;3.69;74.65;104072.41;5109630;28;20055;-70
2022/01/13 04:38:03;;;;;;;46.65;23.75;;;;;;;3.74;74.65;104064.66;5110393;28;20505;-70
2022/01/13 04:40:28;;;;;;;41.70;22.77;;;;;;;3.73;74.74;104051.03;5097401;28;20049;-70
2022/01/13 04:42:55;;;;;;;46.90;24.35;;;;;;;3.68;75.24;104052.31;5104702;28;20375;-70
2022/01/13 04:45:22;;;;;;;45.50;23.95;;;;;;;3.65;75.25;104055.31;5094012;28;20095;-70
2022/01/13 04:47:49;;;;;;;46.88;23.05;;;;;;;3.64;75.18;104055.44;5100400;28;20085;-70
2022/01/13 04:50:14;;;;;;;45.85;23.10;;;;;;;3.64;75.09;104049.94;5093041;28;20066;-70
2022/01/13 04:52:39;;;;;;;45.35;24.70;;;;;;;3.67;75.28;104061.56;5100563;28;20059;-70
2022/01/13 04:55:10;;;;;;;46.75;24.67;;;;;;;3.62;75.61;104055.59;5097087;28;20048;-70
2022/01/13 04:57:36;;;;;;;50.20;25.77;;;;;;;3.68;75.35;104054.19;5095765;28;20434;-70
2022/01/13 05:00:04;;;;;;;48.65;24.15;;;;;;;3.67;74.93;104050.56;5098474;28;20155;-70
2022/01/13 05:02:29;;;;;;;49.65;23.77;;;;;;;3.61;75.34;104051.06;5106485;28;20020;-70
2022/01/13 05:04:54;;;;;;;47.92;24.58;;;;;;;3.65;75.05;104049.81;5096443;28;20077;-70
2022/01/13 05:07:19;;;;;;;46.47;24.13;;;;;;;3.61;75.30;104053.81;5100656;28;20470;-70
2022/01/13 05:09:45;;;;;;;48.53;24.55;;;;;;;3.59;75.19;104057.72;5105731;28;20093;-70
2022/01/13 05:12:10;;;;;;;47.75;24.65;;;;;;;3.59;75.51;104050.34;5112896;28;20081;-70
2022/01/13 05:14:35;;;;;;;46.78;23.20;;;;;;;3.57;75.10;104060.56;5103894;28;20028;-70
2022/01/13 05:17:09;;;;;;;50.20;24.95;;;;;;;3.57;75.25;104057.81;5103122;28;20382;-70
2022/01/13 05:19:44;;;;;;;48.40;23.70;;;;;;;3.62;75.19;104055.59;5113899;28;20074;-70
2022/01/13 05:24:37;;;;;;;52.60;24.77;;;;;;;3.60;75.42;104057.56;5114883;28;20040;-70
2022/01/13 05:27:03;;;;;;;49.95;25.00;;;;;;;3.57;75.41;104063.31;5107051;28;20024;-69
2022/01/13 05:29:28;;;;;;;45.08;23.45;;;;;;;3.59;74.79;104061.34;5096676;28;20023;-70
2022/01/13 05:31:54;;;;;;;48.67;24.05;;;;;;;3.61;75.26;104061.19;5097441;28;20051;-70
2022/01/13 05:34:19;;;;;;;47.65;23.73;;;;;;;3.58;74.89;104056.84;5115166;28;20511;-70
2022/01/13 05:36:44;;;;;;;47.55;23.25;;;;;;;3.60;74.94;104057.56;5108131;28;20039;-70
2022/01/13 05:39:11;;;;;;;47.28;24.23;;;;;;;3.57;75.40;104052.34;5100881;28;20080;-70
2022/01/13 05:41:36;;;;;;;49.47;25.00;;;;;;;3.56;75.45;104056.09;5104938;28;20092;-70
2022/01/13 05:44:02;;;;;;;48.38;24.63;;;;;;;3.59;75.29;104061.34;5106666;28;20043;-70
2022/01/13 05:46:27;;;;;;;56.25;25.88;;;;;;;3.58;74.97;104053.22;5100206;28;20027;-70
2022/01/13 05:48:56;;;;;;;50.00;25.05;;;;;;;3.59;75.30;104058.59;5096718;28;20502;-70
2022/01/13 05:51:22;;;;;;;52.88;26.10;;;;;;;3.60;75.34;104062.19;5103240;28;20031;-70
2022/01/13 05:53:48;;;;;;;50.92;25.08;;;;;;;3.58;75.38;104059.59;5114997;28;20051;-70
2022/01/13 05:56:14;;;;;;;47.30;24.58;;;;;;;3.56;75.53;104063.47;5109687;28;20031;-70
2022/01/13 05:58:39;;;;;;;51.55;25.42;;;;;;;3.57;75.12;104063.31;5113754;28;20878;-70
2022/01/13 06:01:05;;;;;;;60.50;25.55;;;;;;;3.58;75.61;104069.72;5107349;27;20023;-70
2022/01/13 06:03:31;;;;;;;55.08;26.05;;;;;;;3.56;75.36;104067.06;5097065;28;20117;-70
2022/01/13 06:05:56;;;;;;;57.08;27.30;;;;;;;3.56;75.35;104056.09;5098348;28;20143;-70
2022/01/13 06:08:21;;;;;;;55.72;27.65;;;;;;;3.55;75.46;104061.72;5101999;28;20036;-70
2022/01/13 06:10:46;;;;;;;58.90;27.70;;;;;;;3.57;75.76;104051.47;5113695;28;20024;-70
2022/01/13 06:13:13;;;;;;;54.38;27.42;;;;;;;3.57;75.47;104060.56;5104582;28;20038;-70
2022/01/13 06:15:38;;;;;;;54.85;27.45;;;;;;;3.59;75.74;104057.72;5110439;28;20124;-68
2022/01/13 06:18:09;;;;;;;58.25;27.52;;;;;;;3.56;75.90;104056.09;5108613;28;20148;-66
2022/01/13 06:20:34;;;;;;;57.25;28.13;;;;;;;3.57;75.59;104052.34;5101634;28;20082;-66
2022/01/13 06:23:02;;;;;;;57.60;27.83;;;;;;;3.58;75.94;104043.13;5109299;28;20051;-67
2022/01/13 06:25:27;;;;;;;56.03;28.30;;;;;;;3.61;75.73;104047.47;5112130;28;20030;-68
2022/01/13 06:27:53;;;;;;;54.97;27.20;;;;;;;3.63;75.16;104042.72;5109822;28;20023;-67
2022/01/13 06:30:18;;;;;;;52.55;26.27;;;;;;;3.62;75.92;104050.09;5112157;28;20035;-67
2022/01/13 06:32:44;;;;;;;54.90;26.52;;;;;;;3.61;75.44;104044.72;5113291;28;20027;-67
2022/01/13 06:35:10;;;;;;;50.67;25.50;;;;;;;3.64;75.93;104044.47;5108921;28;20027;-67
2022/01/13 06:37:36;;;;;;;53.80;25.38;;;;;;;3.58;75.59;104039.50;5095270;28;20114;-68
2022/01/13 06:40:03;;;;;;;52.10;25.98;;;;;;;3.60;75.82;104041.09;5094877;28;20115;-67
2022/01/13 06:42:28;;;;;;;47.90;25.40;;;;;;;3.57;75.94;104041.34;5109042;28;20042;-67
2022/01/13 06:44:54;;;;;;;48.38;24.83;;;;;;;3.58;75.58;104040.38;5112406;28;20024;-65
2022/01/13 06:47:19;;;;;;;44.67;23.65;;;;;;;3.61;75.51;104047.47;5109392;28;20119;-68
2022/01/13 06:49:44;;;;;;;47.85;23.25;;;;;;;3.62;75.73;104057.47;5106752;28;20046;-66
2022/01/13 06:52:10;;;;;;;44.85;23.55;;;;;;;3.63;75.87;104057.31;5107433;28;20059;-67
2022/01/13 06:54:35;;;;;;;46.22;23.38;;;;;;;3.61;75.71;104056.56;5106830;28;20081;-70
2022/01/13 06:57:00;;;;;;;50.38;24.60;;;;;;;3.63;75.59;104054.56;5109515;28;20028;-67
2022/01/13 06:59:26;;;;;;;51.85;25.20;;;;;;;3.58;76.10;104042.25;5106156;28;20190;-68
2022/01/13 07:01:51;;;;;;;49.28;24.33;;;;;;;3.58;75.41;104047.75;5102870;28;20024;-69
2022/01/13 07:04:17;;;;;;;47.55;25.35;;;;;;;3.59;75.62;104049.47;5109372;28;20073;-69
2022/01/13 07:06:44;;;;;;;47.45;24.33;;;;;;;3.60;75.89;104049.34;5104719;28;20032;-67
2022/01/13 07:09:12;;;;;;;50.03;25.00;;;;;;;3.62;75.96;104055.59;5108912;28;20028;-68
2022/01/13 07:11:38;;;;;;;47.55;22.70;;;;;;;3.59;76.49;104038.50;5105213;28;20545;-67
2022/01/13 07:14:03;;;;;;;44.90;24.25;;;;;;;3.63;76.22;104046.34;5111850;27;20115;-68
2022/01/13 07:16:29;;;;;;;46.78;23.60;;;;;;;3.57;75.96;104049.59;5100459;28;20062;-69
2022/01/13 07:18:55;;;;;;;46.92;24.15;;;;;;;3.58;75.95;104043.13;5105244;27;20032;-69
2022/01/13 07:21:23;;;;;;;56.47;23.85;;;;;;;3.57;76.46;104044.09;5098603;27;20023;-69
2022/01/13 07:23:48;;;;;;;45.30;23.88;;;;;;;3.61;76.11;104056.56;5101079;27;20037;-69
2022/01/13 07:26:13;;;;;;;46.33;23.70;;;;;;;3.62;75.93;104052.84;5101954;28;20032;-68
2022/01/13 07:28:39;;;;;;;50.40;25.85;;;;;;;3.61;76.62;104051.06;5109279;27;20035;-70
2022/01/13 07:31:04;;;;;;;56.97;25.13;;;;;;;3.65;76.19;104055.31;5112980;27;20092;-70
2022/01/13 07:33:29;;;;;;;50.95;25.08;;;;;;;3.61;76.59;104051.06;5102263;27;20447;-71
2022/01/13 07:35:55;;;;;;;49.97;24.77;;;;;;;3.61;76.45;104047.47;5104412;27;20036;-70
2022/01/13 07:38:20;;;;;;;49.08;23.92;;;;;;;3.63;76.24;104054.56;5105784;27;20028;-69
2022/01/13 07:40:46;;;;;;;41.22;22.27;;;;;;;3.62;76.67;104050.09;5098992;28;20039;-69
2022/01/13 07:43:11;;;;;;;43.85;23.55;;;;;;;3.63;76.31;104051.84;5094314;27;20031;-69
2022/01/13 07:45:37;;;;;;;42.45;21.60;;;;;;;3.66;76.74;104050.72;5107538;28;20024;-66
2022/01/13 07:48:02;;;;;;;43.28;22.65;;;;;;;3.77;77.91;104050.66;5108887;27;20070;-65
2022/01/13 07:50:28;;;;;;;43.25;22.85;;;;;;;3.84;77.27;104051.00;5108404;28;20027;-66
2022/01/13 07:52:53;;;;;;;41.00;21.83;;;;;;;3.83;76.78;104063.88;5107667;28;20039;-64
2022/01/13 07:55:18;;;;;;;39.45;20.63;;;;;;;3.81;76.23;104059.50;5110535;27;20035;-70
2022/01/13 07:57:44;;;;;;;41.70;21.38;;;;;;;3.74;76.00;104056.44;5110402;28;20024;-72
2022/01/13 08:00:11;;;;;;;38.90;21.13;;;;;;;3.76;76.57;104056.28;5108525;27;20077;-72
2022/01/13 08:02:36;;;;;;;35.05;20.67;;;;;;;3.78;76.18;104065.28;5110956;28;20027;-72
2022/01/13 08:05:03;;;;;;;41.08;21.95;;;;;;;3.73;76.61;104067.53;5112203;27;20030;-71
2022/01/13 08:07:29;;;;;;;39.72;21.63;;;;;;;3.73;76.45;104060.16;5104596;28;20031;-69
2022/01/13 08:09:54;;;;;;;38.38;20.80;;;;;;;3.77;76.10;104069.00;5100655;28;20027;-67
2022/01/13 08:12:19;;;;;;;43.97;20.88;;;;;;;3.73;76.18;104065.66;5109500;28;20066;-65
2022/01/13 08:14:44;;;;;;;39.58;21.05;;;;;;;3.71;77.16;104064.06;5101676;28;20379;-69
2022/01/13 08:17:19;;;;;;;39.83;22.08;;;;;;;3.72;76.65;104071.28;5112206;28;20069;-69
2022/01/13 08:19:48;;;;;;;41.30;21.80;;;;;;;3.72;76.36;104071.28;5108631;28;20023;-70
2022/01/13 08:22:15;;;;;;;36.35;21.05;;;;;;;3.69;76.33;104076.06;5107885;28;20039;-70
2022/01/13 08:24:40;;;;;;;42.47;21.50;;;;;;;3.70;76.72;104068.69;5111149;28;20031;-69
2022/01/13 08:27:06;;;;;;;38.67;21.42;;;;;;;3.69;76.74;104073.31;5095219;28;20093;-69
2022/01/13 08:29:31;;;;;;;39.85;21.58;;;;;;;3.69;76.61;104078.81;5103429;28;20107;-69
2022/01/13 08:31:57;;;;;;;43.78;20.60;;;;;;;3.67;76.99;104078.03;5095480;28;20016;-69
2022/01/13 08:34:22;;;;;;;45.65;21.55;;;;;;;3.67;77.16;104085.41;5114190;28;20379;-68
2022/01/13 08:36:47;;;;;;;39.13;21.38;;;;;;;3.68;77.26;104085.28;5111630;28;20028;-66
2022/01/13 08:39:13;;;;;;;49.95;20.75;;;;;;;3.68;76.92;104090.75;5102170;28;20119;-67
2022/01/13 08:41:39;;;;;;;49.13;22.20;;;;;;;3.66;77.08;104084.53;5099693;28;20032;-67
2022/01/13 08:44:05;;;;;;;37.05;21.00;;;;;;;3.67;77.27;104083.53;5108915;28;20031;-65
2022/01/13 08:46:30;;;;;;;44.35;22.63;;;;;;;3.72;77.40;104085.03;5109575;28;20024;-66
2022/01/13 08:48:55;;;;;;;39.78;22.17;;;;;;;3.73;77.48;104086.75;5107079;28;20345;-67
2022/01/13 08:51:21;;;;;;;38.03;21.63;;;;;;;3.74;77.27;104086.66;5095488;28;20060;-66
2022/01/13 08:53:47;;;;;;;47.30;22.50;;;;;;;3.72;77.56;104098.75;5097797;28;20039;-67
2022/01/13 08:56:23;;;;;;;40.55;21.58;;;;;;;3.75;77.15;104093.88;5096129;28;20071;-67
2022/01/13 08:58:48;;;;;;;39.95;21.17;;;;;;;3.75;77.46;104090.25;5124265;27;20095;-67
2022/01/13 09:01:14;;;;;;;36.63;21.42;;;;;;;3.75;77.23;104088.38;5112161;27;20027;-67
2022/01/13 09:03:40;;;;;;;43.92;22.85;;;;;;;3.77;76.90;104102.84;5108226;27;20482;-68
2022/01/13 09:06:05;;;;;;;40.45;21.90;;;;;;;3.78;77.42;104098.25;5106694;28;20032;-67
2022/01/13 09:08:30;;;;;;;47.47;21.98;;;;;;;3.77;77.04;104101.97;5105967;28;20023;-68
2022/01/13 09:10:56;;;;;;;43.92;22.50;;;;;;;3.78;77.45;104112.00;5116069;28;20028;-67
2022/01/13 09:13:22;;;;;;;42.40;21.80;;;;;;;3.77;77.50;104113.84;5110585;28;20447;-68
2022/01/13 09:15:58;;;;;;;38.50;21.85;;;;;;;3.77;77.28;104107.47;5109679;28;20082;-68
2022/01/13 09:18:33;;;;;;;45.03;28.50;;;;;;;3.78;77.20;104104.63;5106352;28;20028;-68
2022/01/13 09:20:59;;;;;;;49.42;26.60;;;;;;;3.78;77.35;104110.13;5106867;27;20054;-68
2022/01/13 09:23:24;;;;;;;50.95;27.20;;;;;;;3.78;77.81;104112.88;5130681;27;20398;-68
2022/01/13 09:25:50;;;;;;;64.07;32.03;;;;;;;3.79;77.06;104111.84;5102426;28;20028;-68
2022/01/13 09:28:15;;;;;;;49.33;26.05;;;;;;;3.80;77.27;104110.84;5107120;28;20052;-68
2022/01/13 09:30:41;;;;;;;49.05;24.67;;;;;;;3.82;77.72;104116.22;5113390;28;20063;-68
2022/01/13 09:33:07;;;;;;;45.00;25.42;;;;;;;3.85;77.19;104115.94;5118663;27;20062;-68
2022/01/13 09:35:33;;;;;;;40.78;23.45;;;;;;;3.84;77.90;104119.72;5114239;27;20055;-69
2022/01/13 09:37:59;;;;;;;44.88;22.77;;;;;;;3.83;77.68;104121.59;5112835;27;20055;-68
2022/01/13 09:40:25;;;;;;;53.00;24.67;;;;;;;3.86;77.59;104124.09;5114788;27;20073;-67
2022/01/13 09:42:51;;;;;;;43.55;23.15;;;;;;;3.88;77.42;104118.44;5123903;27;20027;-68
2022/01/13 09:45:18;;;;;;;43.78;22.02;;;;;;;3.88;77.52;104110.19;5121500;27;20035;-71
2022/01/13 09:47:44;;;;;;;49.88;25.67;;;;;;;3.87;77.29;104111.22;5116139;27;20035;-68
2022/01/13 09:50:13;;;;;;;53.75;26.75;;;;;;;3.83;77.14;104110.59;5109998;27;20115;-68
2022/01/13 09:52:40;;;;;;;53.95;27.73;;;;;;;3.82;77.34;104116.22;5108091;27;20028;-68
2022/01/13 09:55:07;;;;;;;48.72;25.85;;;;;;;3.83;77.87;104117.97;5109867;27;20062;-66
2022/01/13 09:57:33;;;;;;;55.38;27.63;;;;;;;3.80;77.99;104113.59;5103861;28;20019;-66
2022/01/13 10:00:00;;;;;;;69.88;34.53;;;;;;;3.88;77.87;104111.06;5101746;28;22696;-66
2022/01/13 10:02:25;;;;;;;52.60;27.52;;;;;;;3.88;77.91;104113.81;5109521;28;20054;-65
2022/01/13 10:04:53;;;;;;;46.03;22.67;;;;;;;3.91;77.59;104119.06;5112536;27;20054;-65
2022/01/13 10:07:33;;;;;;;54.00;22.23;;;;;;;3.93;77.72;104113.47;5114587;27;20032;-66
2022/01/13 10:10:03;;;;;;;43.72;22.85;;;;;;;3.90;77.82;104114.56;5107778;28;20542;-65
2022/01/13 10:12:39;;;;;;;41.85;21.65;;;;;;;3.91;78.07;104112.69;5105041;28;20855;-65
2022/01/13 10:17:57;;;;;;;45.50;23.33;;;;;;;3.96;78.18;104115.06;5103306;28;20043;-67
2022/01/13 10:20:23;;;;;;;54.97;22.55;;;;;;;3.91;77.74;104113.56;5101416;28;20028;-67
2022/01/13 10:22:49;;;;;;;41.90;21.90;;;;;;;3.93;77.53;104117.06;5094111;28;20108;-66
2022/01/13 10:25:36;;;;;;;46.63;23.50;;;;;;;4.00;78.04;104113.78;5099657;28;20054;-66
2022/01/13 10:28:19;;;;;;;44.55;22.20;;;;;;;3.98;78.00;104111.19;5102296;28;20043;-67
2022/01/13 10:30:48;;;;;;;44.92;22.67;;;;;;;3.96;77.77;104113.19;5112066;28;20072;-67
2022/01/13 10:33:22;;;;;;;46.33;23.58;;;;;;;3.93;78.34;104110.72;5092908;28;20028;-66
2022/01/13 10:35:49;;;;;;;48.17;21.67;;;;;;;3.95;77.94;104116.94;5107450;27;20037;-66
2022/01/13 10:38:16;;;;;;;43.67;22.08;;;;;;;3.98;77.77;104116.69;5117270;27;20020;-66
2022/01/13 10:40:46;;;;;;;40.70;21.13;;;;;;;4.02;77.85;104126.41;5109982;28;20065;-66
2022/01/13 10:43:11;;;;;;;44.60;21.30;;;;;;;3.99;77.86;104117.56;5110542;27;20067;-65
2022/01/13 10:45:40;;;;;;;42.67;21.33;;;;;;;3.97;77.76;104117.69;5104819;27;20057;-66
2022/01/13 10:48:18;;;;;;;47.47;21.42;;;;;;;3.96;77.93;104113.19;5109266;28;20027;-66
2022/01/13 10:50:53;;;;;;;41.03;20.42;;;;;;;3.97;78.13;104117.69;5111763;27;20390;-66
2022/01/13 10:53:46;;;;;;;50.80;21.38;;;;;;;4.05;77.88;104108.75;5097938;28;20040;-66
2022/01/13 10:56:14;;;;;;;;;;;;;;;4.16;77.10;104108.72;5092401;28;20048;-66
2022/01/13 10:58:50;;;;;;;44.75;20.65;;;;;;;4.03;78.07;104102.53;5105034;28;19950;-66
2022/01/13 11:01:16;;;;;;;39.47;20.27;;;;;;;4.02;77.88;104101.69;5100998;27;20031;-66
2022/01/13 11:03:43;;;;;;;40.90;19.27;;;;;;;4.03;77.93;104097.91;5104623;28;20023;-66
2022/01/13 11:06:10;;;;;;;44.05;20.80;;;;;;;4.02;77.89;104090.69;5098537;28;20139;-67
2022/01/13 11:08:44;;;;;;;39.47;19.85;;;;;;;4.07;77.95;104093.91;5110483;27;20036;-70
2022/01/13 11:11:17;;;;;;;42.22;20.20;;;;;;;4.06;77.89;104086.66;5098506;28;20027;-69
2022/01/13 11:13:59;;;;;;;40.58;20.02;;;;;;;4.11;78.25;104087.13;5102119;28;20071;-68
2022/01/13 11:16:26;;;;;;;39.83;20.92;;;;;;;4.06;78.00;104083.91;5106652;28;20027;-66
2022/01/13 11:18:52;;;;;;;38.88;20.70;;;;;;;4.07;78.03;104085.66;5105927;28;20499;-68
2022/01/13 11:21:17;;;;;;;42.17;20.65;;;;;;;4.07;78.20;104077.41;5106453;27;20046;-67
2022/01/13 11:23:48;;;;;;;40.20;20.40;;;;;;;4.09;78.15;104071.78;5109880;27;20088;-69
2022/01/13 11:26:14;;;;;;;40.10;20.25;;;;;;;4.10;77.69;104074.41;5104930;27;20023;-69
2022/01/13 11:28:40;;;;;;;40.25;21.17;;;;;;;4.11;78.00;104062.41;5102408;28;20028;-73
2022/01/13 11:31:10;;;;;;;38.95;20.25;;;;;;;4.10;77.94;104066.16;5102847;28;20027;-71
2022/01/13 11:33:37;;;;;;;43.50;20.58;;;;;;;4.07;78.15;104063.66;5102466;28;20028;-64
2022/01/13 11:36:03;;;;;;;46.72;21.88;;;;;;;4.07;77.82;104060.91;5099756;28;20039;-71
2022/01/13 11:38:30;;;;;;;41.58;21.30;;;;;;;4.08;78.25;104061.78;5105135;28;20030;-71
2022/01/13 11:41:06;;;;;;;39.40;18.80;;;;;;;4.02;78.16;104060.44;5106187;28;20379;-69
2022/01/13 11:43:38;;;;;;;43.17;20.33;;;;;;;4.04;78.25;104063.91;5108974;28;20038;-78